createdAt,value
2018-11-12T00:01:22.214Z,91.18
2018-11-12T00:03:50.436Z,92.15
2018-11-12T00:06:18.745Z,91.96
2018-11-12T00:08:46.861Z,92.13
2018-11-12T00:11:15.128Z,92.16
2018-11-12T00:13:43.287Z,91.89
2018-11-12T00:16:11.679Z,92.05
2018-11-12T00:18:39.901Z,92.92
2018-11-12T00:21:08.061Z,92.88
2018-11-12T00:23:36.288Z,92.38
2018-11-12T00:26:04.907Z,91.56
2018-11-12T00:28:33.051Z,91.54
2018-11-12T00:31:02.398Z,92.05
2018-11-12T00:33:30.514Z,91.92
2018-11-12T00:35:58.633Z,92.15
2018-11-12T00:38:26.770Z,92.19
2018-11-12T00:40:54.892Z,91.88
2018-11-12T00:43:23.092Z,92.39
2018-11-12T00:45:51.241Z,92.90
2018-11-12T00:48:19.628Z,92.66
2018-11-12T00:50:47.799Z,92.92
2018-11-12T00:53:15.993Z,92.47
2018-11-12T00:55:44.115Z,92.94
2018-11-12T00:58:12.376Z,93.15
2018-11-12T01:00:40.596Z,92.65
2018-11-12T01:03:08.744Z,91.67
2018-11-12T01:05:37.137Z,91.65
2018-11-12T01:08:05.599Z,90.49
2018-11-12T01:10:40.196Z,90.00
2018-11-12T01:13:08.402Z,89.40
2018-11-12T01:15:36.691Z,90.22
2018-11-12T01:18:05.036Z,89.32
2018-11-12T01:20:33.641Z,89.61
2018-11-12T01:23:01.819Z,89.40
2018-11-12T01:25:30.019Z,88.47
2018-11-12T01:27:58.276Z,88.30
2018-11-12T01:30:26.586Z,88.11
2018-11-12T01:32:55.128Z,87.36
2018-11-12T01:35:23.322Z,86.80
2018-11-12T01:37:51.447Z,86.51
2018-11-12T01:40:19.592Z,86.30
2018-11-12T01:42:47.727Z,86.38
2018-11-12T01:45:17.180Z,85.98
2018-11-12T01:47:46.484Z,86.62
2018-11-12T01:50:15.111Z,85.63
2018-11-12T01:52:43.979Z,85.36
2018-11-12T01:55:13.528Z,86.29
2018-11-12T01:57:41.897Z,86.30
2018-11-12T02:00:12.871Z,86.20
2018-11-12T02:02:41.357Z,86.11
2018-11-12T02:05:10.047Z,86.26
2018-11-12T02:07:38.344Z,86.08
2018-11-12T02:10:08.101Z,86.21
2018-11-12T02:12:36.535Z,85.19
2018-11-12T02:15:07.450Z,85.58
2018-11-12T02:17:35.829Z,86.01
2018-11-12T02:20:04.628Z,86.61
2018-11-12T02:22:32.819Z,88.52
2018-11-12T02:25:00.941Z,88.85
2018-11-12T02:27:29.188Z,89.73
2018-11-12T02:29:57.438Z,90.22
2018-11-12T02:32:25.498Z,90.44
2018-11-12T02:34:53.803Z,90.61
2018-11-12T02:37:21.920Z,91.93
2018-11-12T02:39:50.123Z,93.46
2018-11-12T02:42:18.566Z,93.97
2018-11-12T02:44:46.741Z,93.85
2018-11-12T02:47:14.892Z,92.86
2018-11-12T02:49:43.572Z,93.13
2018-11-12T02:52:11.727Z,93.21
2018-11-12T02:54:39.966Z,93.49
2018-11-12T02:57:08.124Z,93.40
2018-11-12T02:59:36.662Z,92.73
2018-11-12T03:02:04.894Z,92.65
2018-11-12T03:04:33.048Z,93.04
2018-11-12T03:07:01.424Z,92.88
2018-11-12T03:09:29.813Z,92.48
2018-11-12T03:11:58.135Z,91.85
2018-11-12T03:14:26.259Z,92.09
2018-11-12T03:16:54.559Z,91.98
2018-11-12T03:19:22.751Z,90.51
2018-11-12T03:21:50.941Z,90.70
2018-11-12T03:24:19.237Z,89.84
2018-11-12T03:26:47.392Z,89.26
2018-11-12T03:29:15.575Z,89.00
2018-11-12T03:31:44.008Z,89.29
2018-11-12T03:34:12.213Z,89.21
2018-11-12T03:36:40.469Z,88.58
2018-11-12T03:39:09.519Z,87.78
2018-11-12T03:41:38.532Z,86.68
2018-11-12T03:44:06.929Z,87.71
2018-11-12T03:46:35.397Z,86.68
2018-11-12T03:49:03.891Z,87.21
2018-11-12T03:51:32.168Z,87.74
2018-11-12T03:54:00.579Z,87.78
2018-11-12T03:56:28.796Z,88.12
2018-11-12T03:58:56.919Z,87.83
2018-11-12T04:01:29.614Z,87.53
2018-11-12T04:03:57.831Z,87.74
2018-11-12T04:06:25.962Z,87.60
2018-11-12T04:08:54.135Z,86.97
2018-11-12T04:11:22.409Z,86.85
2018-11-12T04:13:50.668Z,87.19
2018-11-12T04:16:18.933Z,86.52
2018-11-12T04:18:47.105Z,86.03
2018-11-12T04:21:15.334Z,85.49
2018-11-12T04:23:43.692Z,84.26
2018-11-12T04:26:12.012Z,83.87
2018-11-12T04:28:40.473Z,84.41
2018-11-12T04:31:09.642Z,84.19
2018-11-12T04:33:37.836Z,83.57
2018-11-12T04:36:06.255Z,83.80
2018-11-12T04:38:34.415Z,83.09
2018-11-12T04:41:02.664Z,83.21
2018-11-12T04:43:31.175Z,83.23
2018-11-12T04:45:59.412Z,83.00
2018-11-12T04:48:27.560Z,82.88
2018-11-12T04:50:55.768Z,82.61
2018-11-12T04:53:24.020Z,84.14
2018-11-12T04:55:52.560Z,84.69
2018-11-12T04:58:20.832Z,84.08
2018-11-12T05:00:49.042Z,84.97
2018-11-12T05:03:17.254Z,87.67
2018-11-12T05:05:45.419Z,89.28
2018-11-12T05:08:13.558Z,90.40
2018-11-12T05:10:41.774Z,91.84
2018-11-12T05:13:09.922Z,92.99
2018-11-12T05:15:38.131Z,93.78
2018-11-12T05:18:06.425Z,94.62
2018-11-12T05:20:34.621Z,94.05
2018-11-12T05:23:02.766Z,94.07
2018-11-12T05:25:30.903Z,94.00
2018-11-12T05:27:59.048Z,90.88
2018-11-12T05:30:28.447Z,90.31
2018-11-12T05:32:57.138Z,87.73
2018-11-12T05:35:26.574Z,86.73
2018-11-12T05:37:55.236Z,85.79
2018-11-12T05:40:24.567Z,85.38
2018-11-12T05:42:52.740Z,84.03
2018-11-12T05:45:22.064Z,84.07
2018-11-12T05:47:50.305Z,83.46
2018-11-12T05:50:21.973Z,83.44
2018-11-12T05:52:51.434Z,83.45
2018-11-12T05:55:21.073Z,83.59
2018-11-12T05:57:49.326Z,84.20
2018-11-12T06:00:21.302Z,83.82
2018-11-12T06:02:49.513Z,83.59
2018-11-12T06:05:17.792Z,82.90
2018-11-12T06:07:46.096Z,85.11
2018-11-12T06:10:16.243Z,86.62
2018-11-12T06:12:44.796Z,87.70
2018-11-12T06:15:13.813Z,88.34
2018-11-12T06:17:42.704Z,87.90
2018-11-12T06:20:15.202Z,88.18
2018-11-12T06:22:43.683Z,88.47
2018-11-12T06:25:13.103Z,87.28
2018-11-12T06:27:41.330Z,86.87
2018-11-12T06:30:12.760Z,86.73
2018-11-12T06:32:41.028Z,86.12
2018-11-12T06:35:10.137Z,86.23
2018-11-12T06:37:38.376Z,85.74
2018-11-12T06:40:08.215Z,85.58
2018-11-12T06:42:36.838Z,84.64
2018-11-12T06:45:05.904Z,84.14
2018-11-12T06:47:34.162Z,83.07
2018-11-12T06:50:02.357Z,82.22
2018-11-12T06:52:30.533Z,81.46
2018-11-12T06:54:58.697Z,81.32
2018-11-12T06:57:27.321Z,80.58
2018-11-12T06:59:55.780Z,80.12
2018-11-12T07:02:24.147Z,80.14
2018-11-12T07:04:52.316Z,79.25
2018-11-12T07:07:20.637Z,78.97
2018-11-12T07:09:49.016Z,77.75
2018-11-12T07:12:17.304Z,76.77
2018-11-12T07:14:45.665Z,76.59
2018-11-12T07:17:13.805Z,75.72
2018-11-12T07:19:42.042Z,75.62
2018-11-12T07:22:10.229Z,74.98
2018-11-12T07:24:38.651Z,74.67
2018-11-12T07:27:07.064Z,73.76
2018-11-12T07:29:35.515Z,76.63
2018-11-12T07:32:03.731Z,77.42
2018-11-12T07:34:31.972Z,77.71
2018-11-12T07:37:00.092Z,78.74
2018-11-12T07:39:28.453Z,79.36
2018-11-12T07:41:56.667Z,78.14
2018-11-12T07:44:24.849Z,79.23
2018-11-12T07:46:52.980Z,78.42
2018-11-12T07:49:21.407Z,78.15
2018-11-12T07:51:49.600Z,75.83
2018-11-12T07:54:17.799Z,76.27
2018-11-12T07:56:45.984Z,77.73
2018-11-12T07:59:14.149Z,78.24
2018-11-12T08:01:42.287Z,77.68
2018-11-12T08:04:10.794Z,77.41
2018-11-12T08:06:39.157Z,77.66
2018-11-12T08:09:08.434Z,77.20
2018-11-12T08:11:36.636Z,77.96
2018-11-12T08:14:05.010Z,76.68
2018-11-12T08:16:33.258Z,77.77
2018-11-12T08:19:01.639Z,77.82
2018-11-12T08:21:30.078Z,77.69
2018-11-12T08:23:58.350Z,77.43
2018-11-12T08:26:26.837Z,77.20
2018-11-12T08:28:55.171Z,77.17
2018-11-12T08:31:23.379Z,76.36
2018-11-12T08:33:51.532Z,77.15
2018-11-12T08:36:20.099Z,79.16
2018-11-12T08:38:49.220Z,78.92
2018-11-12T08:41:17.396Z,79.49
2018-11-12T08:43:45.660Z,79.05
2018-11-12T08:46:13.968Z,78.68
2018-11-12T08:48:42.196Z,78.61
2018-11-12T08:51:17.124Z,79.00
2018-11-12T08:53:45.312Z,78.83
2018-11-12T08:56:13.483Z,78.28
2018-11-12T08:58:41.685Z,78.12
2018-11-12T09:01:09.916Z,77.15
2018-11-12T09:03:38.115Z,76.36
2018-11-12T09:06:06.567Z,74.77
2018-11-12T09:08:34.757Z,74.51
2018-11-12T09:11:03.158Z,74.08
2018-11-12T09:13:31.377Z,74.38
2018-11-12T09:15:59.483Z,74.96
2018-11-12T09:18:27.654Z,75.44
2018-11-12T09:20:55.888Z,74.33
2018-11-12T09:23:24.179Z,74.27
2018-11-12T09:25:52.612Z,73.66
2018-11-12T09:28:21.507Z,74.86
2018-11-12T09:30:51.102Z,75.46
2018-11-12T09:33:18.174Z,76.27
2018-11-12T09:35:46.372Z,75.36
2018-11-12T09:38:14.678Z,75.75
2018-11-12T09:40:42.822Z,75.52
2018-11-12T09:43:10.954Z,74.94
2018-11-12T09:45:39.333Z,74.74
2018-11-12T09:48:07.782Z,70.84
2018-11-12T09:50:36.278Z,68.70
2018-11-12T09:53:04.799Z,69.30
2018-11-12T09:55:33.831Z,71.91
2018-11-12T09:58:03.537Z,72.73
2018-11-12T10:00:32.189Z,74.04
2018-11-12T10:03:00.919Z,74.84
2018-11-12T10:05:30.130Z,74.71
2018-11-12T10:08:00.786Z,75.09
2018-11-12T10:10:46.199Z,77.08
2018-11-12T10:13:16.981Z,76.56
2018-11-12T10:15:47.076Z,76.16
2018-11-12T10:20:40.176Z,75.87
2018-11-12T10:23:08.571Z,76.78
2018-11-12T10:25:36.867Z,77.38
2018-11-12T10:28:05.152Z,76.56
2018-11-12T10:30:33.626Z,76.09
2018-11-12T10:33:02.008Z,77.26
2018-11-12T10:35:30.249Z,76.83
2018-11-12T10:37:58.650Z,77.73
2018-11-12T10:40:27.164Z,77.10
2018-11-12T10:42:55.594Z,77.31
2018-11-12T10:45:25.018Z,77.45
2018-11-12T10:47:54.062Z,76.99
2018-11-12T10:50:22.527Z,78.64
2018-11-12T10:52:50.918Z,78.95
2018-11-12T10:55:20.660Z,79.53
2018-11-12T10:57:49.177Z,78.98
2018-11-12T11:00:40.391Z,77.97
2018-11-12T11:03:17.120Z,78.44
2018-11-12T11:05:46.804Z,77.98
2018-11-12T11:08:15.315Z,77.79
2018-11-12T11:10:43.732Z,77.93
2018-11-12T11:13:12.272Z,79.71
2018-11-12T11:15:40.886Z,80.85
2018-11-12T11:18:09.138Z,80.49
2018-11-12T11:20:37.416Z,79.72
2018-11-12T11:23:05.548Z,79.75
2018-11-12T11:25:33.979Z,80.31
2018-11-12T11:28:02.445Z,79.43
2018-11-12T11:30:30.672Z,79.34
2018-11-12T11:32:58.956Z,78.05
2018-11-12T11:35:27.100Z,78.01
2018-11-12T11:37:55.348Z,77.54
2018-11-12T11:40:25.616Z,76.54
2018-11-12T11:42:53.929Z,75.78
2018-11-12T11:45:22.520Z,75.42
2018-11-12T11:47:51.694Z,75.79
2018-11-12T11:50:21.136Z,74.80
2018-11-12T11:52:49.244Z,73.53
2018-11-12T11:55:24.581Z,73.44
2018-11-12T11:57:53.155Z,74.33
2018-11-12T12:00:23.719Z,74.05
2018-11-12T12:02:53.118Z,73.01
2018-11-12T12:05:22.327Z,68.24
2018-11-12T12:07:51.123Z,68.55
2018-11-12T12:10:19.414Z,65.66
2018-11-12T12:12:48.621Z,62.25
2018-11-12T12:15:18.162Z,61.88
2018-11-12T12:17:46.567Z,62.06
2018-11-12T12:20:19.131Z,66.69
2018-11-12T12:22:47.252Z,68.83
2018-11-12T12:25:16.593Z,70.32
2018-11-12T12:27:45.396Z,69.93
2018-11-12T12:30:23.448Z,70.68
2018-11-12T12:32:52.539Z,71.54
2018-11-12T12:35:27.152Z,73.58
2018-11-12T12:37:55.678Z,73.17
2018-11-12T12:40:25.519Z,71.64
2018-11-12T12:42:53.733Z,68.10
2018-11-12T12:45:23.663Z,67.33
2018-11-12T12:47:52.430Z,65.85
2018-11-12T12:50:20.966Z,65.45
2018-11-12T12:52:49.385Z,64.41
2018-11-12T12:55:18.034Z,64.59
2018-11-12T12:57:46.893Z,64.90
2018-11-12T13:00:18.426Z,63.47
2018-11-12T13:02:46.796Z,62.03
2018-11-12T13:05:15.185Z,59.66
2018-11-12T13:07:43.737Z,58.88
2018-11-12T13:10:14.396Z,58.06
2018-11-12T13:12:42.870Z,57.91
2018-11-12T13:15:13.584Z,58.49
2018-11-12T13:17:42.452Z,59.85
2018-11-12T13:20:12.442Z,55.22
2018-11-12T13:22:40.899Z,55.07
2018-11-12T13:25:09.553Z,56.51
2018-11-12T13:27:38.117Z,52.41
2018-11-12T13:30:08.850Z,51.83
2018-11-12T13:32:37.281Z,53.01
2018-11-12T13:35:06.300Z,54.21
2018-11-12T13:37:34.595Z,53.85
2018-11-12T13:40:03.032Z,54.52
2018-11-12T13:42:31.569Z,54.70
2018-11-12T13:45:00.431Z,54.39
2018-11-12T13:47:28.792Z,54.81
2018-11-12T13:49:57.176Z,53.87
2018-11-12T13:52:25.516Z,53.14
2018-11-12T13:54:53.944Z,53.79
2018-11-12T13:57:22.334Z,54.52
2018-11-12T13:59:50.740Z,53.76
2018-11-12T14:02:19.168Z,52.85
2018-11-12T14:04:47.707Z,53.30
2018-11-12T14:07:16.148Z,53.00
2018-11-12T14:09:44.672Z,53.22
2018-11-12T14:12:13.086Z,50.54
2018-11-12T14:14:41.401Z,50.83
2018-11-12T14:17:09.852Z,51.05
2018-11-12T14:19:38.260Z,51.40
2018-11-12T14:22:06.707Z,52.15
2018-11-12T14:24:35.120Z,51.34
2018-11-12T14:27:03.504Z,51.61
2018-11-12T14:29:32.030Z,51.99
2018-11-12T14:32:00.257Z,51.47
2018-11-12T14:34:28.817Z,51.61
2018-11-12T14:36:57.331Z,51.94
2018-11-12T14:39:25.758Z,51.59
2018-11-12T14:41:53.970Z,53.17
2018-11-12T14:44:22.193Z,52.04
2018-11-12T14:46:50.682Z,52.09
2018-11-12T14:49:19.073Z,54.99
2018-11-12T14:51:47.500Z,52.84
2018-11-12T14:54:15.933Z,53.18
2018-11-12T14:56:44.371Z,54.14
2018-11-12T14:59:12.942Z,54.19
2018-11-12T15:01:41.382Z,55.70
2018-11-12T15:04:09.917Z,54.37
2018-11-12T15:06:38.342Z,55.84
2018-11-12T15:09:09.436Z,57.74
2018-11-12T15:11:38.039Z,57.17
2018-11-12T15:14:06.603Z,56.78
2018-11-12T15:16:34.776Z,57.35
2018-11-12T15:19:03.637Z,58.54
2018-11-12T15:21:32.022Z,58.51
2018-11-12T15:24:00.347Z,59.73
2018-11-12T15:26:29.404Z,59.81
2018-11-12T15:28:58.310Z,59.80
2018-11-12T15:31:26.740Z,60.21
2018-11-12T15:33:55.376Z,59.92
2018-11-12T15:36:23.767Z,61.38
2018-11-12T15:38:51.851Z,61.23
2018-11-12T15:41:20.474Z,61.45
2018-11-12T15:43:48.700Z,62.00
2018-11-12T15:46:17.147Z,61.70
2018-11-12T15:48:45.318Z,61.97
2018-11-12T15:51:13.667Z,62.54
2018-11-12T15:53:41.791Z,63.26
2018-11-12T15:56:10.276Z,63.55
2018-11-12T15:58:38.560Z,63.65
2018-11-12T16:01:06.820Z,63.30
2018-11-12T16:03:35.208Z,64.35
2018-11-12T16:06:03.784Z,63.82
2018-11-12T16:08:32.092Z,65.57
2018-11-12T16:11:00.231Z,68.33
2018-11-12T16:13:28.493Z,68.43
2018-11-12T16:15:56.866Z,68.68
2018-11-12T16:18:25.069Z,68.29
2018-11-12T16:20:53.360Z,68.32
2018-11-12T16:23:21.621Z,68.99
2018-11-12T16:25:49.796Z,68.53
2018-11-12T16:28:18.092Z,69.37
2018-11-12T16:30:46.309Z,69.98
2018-11-12T16:33:14.640Z,70.63
2018-11-12T16:35:42.863Z,69.81
2018-11-12T16:38:11.052Z,70.80
2018-11-12T16:40:39.328Z,71.41
2018-11-12T16:43:07.926Z,70.25
2018-11-12T16:45:36.380Z,69.36
2018-11-12T16:48:07.628Z,68.55
2018-11-12T16:50:36.120Z,67.92
2018-11-12T16:53:04.519Z,67.68
2018-11-12T16:55:32.904Z,67.84
2018-11-12T16:58:01.457Z,67.27
2018-11-12T17:00:29.764Z,67.12
2018-11-12T17:02:58.144Z,67.31
2018-11-12T17:05:26.547Z,67.58
2018-11-12T17:07:54.699Z,67.11
2018-11-12T17:10:24.609Z,68.41
2018-11-12T17:12:52.980Z,68.76
2018-11-12T17:15:21.156Z,68.13
2018-11-12T17:17:49.660Z,68.61
2018-11-12T17:20:19.273Z,67.80
2018-11-12T17:22:47.791Z,68.44
2018-11-12T17:25:16.767Z,69.15
2018-11-12T17:27:45.381Z,69.58
2018-11-12T17:30:15.813Z,68.80
2018-11-12T17:32:44.727Z,68.12
2018-11-12T17:35:14.635Z,69.57
2018-11-12T17:37:42.791Z,68.12
2018-11-12T17:40:17.456Z,69.23
2018-11-12T17:42:46.563Z,69.35
2018-11-12T17:45:17.004Z,68.72
2018-11-12T17:47:46.428Z,68.54
2018-11-12T17:50:14.654Z,68.78
2018-11-12T17:52:42.815Z,68.44
2018-11-12T17:55:16.634Z,68.29
2018-11-12T17:57:45.127Z,68.88
2018-11-12T18:00:17.028Z,70.36
2018-11-12T18:02:45.368Z,71.18
2018-11-12T18:05:13.506Z,69.87
2018-11-12T18:07:42.539Z,70.26
2018-11-12T18:10:11.764Z,69.75
2018-11-12T18:12:40.184Z,69.49
2018-11-12T18:15:11.458Z,69.55
2018-11-12T18:17:39.634Z,68.66
2018-11-12T18:20:11.104Z,68.51
2018-11-12T18:22:39.539Z,69.25
2018-11-12T18:25:08.472Z,69.55
2018-11-12T18:27:37.370Z,70.38
2018-11-12T18:30:11.114Z,71.20
2018-11-12T18:32:39.480Z,71.17
2018-11-12T18:35:07.883Z,70.47
2018-11-12T18:37:36.487Z,70.32
2018-11-12T18:40:05.704Z,70.97
2018-11-12T18:42:33.880Z,71.17
2018-11-12T18:45:02.012Z,71.49
2018-11-12T18:47:30.192Z,71.46
2018-11-12T18:49:58.719Z,72.28
2018-11-12T18:52:26.975Z,72.33
2018-11-12T18:54:55.368Z,71.92
2018-11-12T18:57:23.873Z,72.07
2018-11-12T18:59:52.246Z,72.76
2018-11-12T19:02:20.550Z,73.66
2018-11-12T19:04:48.873Z,73.19
2018-11-12T19:07:17.114Z,73.78
2018-11-12T19:09:45.468Z,73.49
2018-11-12T19:12:13.684Z,73.04
2018-11-12T19:14:41.820Z,73.52
2018-11-12T19:17:10.808Z,73.43
2018-11-12T19:19:39.060Z,73.95
2018-11-12T19:22:07.548Z,73.62
2018-11-12T19:24:35.807Z,72.52
2018-11-12T19:27:04.056Z,72.58
2018-11-12T19:29:32.416Z,72.48
2018-11-12T19:32:00.684Z,72.69
2018-11-12T19:34:28.840Z,73.63
2018-11-12T19:36:57.071Z,74.55
2018-11-12T19:39:25.250Z,74.76
2018-11-12T19:41:53.456Z,76.26
2018-11-12T19:44:21.696Z,76.46
2018-11-12T19:46:50.037Z,76.88
2018-11-12T19:49:18.167Z,77.61
2018-11-12T19:51:46.522Z,77.83
2018-11-12T19:54:14.979Z,78.92
2018-11-12T19:56:43.112Z,79.36
2018-11-12T19:59:12.601Z,79.00
2018-11-12T20:01:40.727Z,78.91
2018-11-12T20:04:09.032Z,78.75
2018-11-12T20:06:37.229Z,77.74
2018-11-12T20:09:07.390Z,78.59
2018-11-12T20:11:35.666Z,79.58
2018-11-12T20:14:03.807Z,81.22
2018-11-12T20:16:31.996Z,82.12
2018-11-12T20:19:00.329Z,83.26
2018-11-12T20:21:28.756Z,82.62
2018-11-12T20:23:56.993Z,83.23
2018-11-12T20:26:25.168Z,84.69
2018-11-12T20:28:53.351Z,84.51
2018-11-12T20:31:21.668Z,85.73
2018-11-12T20:33:50.102Z,85.67
2018-11-12T20:36:18.453Z,85.06
2018-11-12T20:38:46.722Z,85.48
2018-11-12T20:41:14.905Z,84.53
2018-11-12T20:43:44.078Z,84.42
2018-11-12T20:46:12.340Z,85.67
2018-11-12T20:48:40.615Z,86.60
2018-11-12T20:51:08.788Z,86.17
2018-11-12T20:53:37.155Z,85.63
2018-11-12T20:56:06.082Z,86.69
2018-11-12T20:58:34.235Z,88.44
2018-11-12T21:01:02.439Z,88.88
2018-11-12T21:03:30.848Z,89.29
2018-11-12T21:05:59.143Z,89.57
2018-11-12T21:08:27.318Z,89.52
2018-11-12T21:10:55.596Z,89.57
2018-11-12T21:13:23.986Z,89.90
2018-11-12T21:15:52.236Z,89.67
2018-11-12T21:18:20.403Z,89.73
2018-11-12T21:20:48.888Z,89.97
2018-11-12T21:23:17.102Z,90.21
2018-11-12T21:25:45.755Z,90.45
2018-11-12T21:28:14.016Z,90.02
2018-11-12T21:30:42.176Z,90.23
2018-11-12T21:33:10.352Z,89.60
2018-11-12T21:35:38.832Z,89.07
2018-11-12T21:38:07.113Z,88.46
2018-11-12T21:40:35.384Z,88.28
2018-11-12T21:43:03.630Z,88.11
2018-11-12T21:45:31.751Z,88.54
2018-11-12T21:48:00.240Z,88.73
2018-11-12T21:50:28.491Z,89.80
2018-11-12T21:52:56.731Z,90.51
2018-11-12T21:55:24.911Z,90.54
2018-11-12T21:57:53.133Z,91.09
2018-11-12T22:02:41.363Z,92.31
2018-11-12T22:05:09.504Z,92.22
2018-11-12T22:07:37.741Z,92.53
2018-11-12T22:10:07.720Z,91.38
2018-11-12T22:12:36.099Z,90.37
2018-11-12T22:15:04.395Z,90.82
2018-11-12T22:17:32.652Z,92.29
2018-11-12T22:20:00.939Z,91.83
2018-11-12T22:22:29.544Z,91.15
2018-11-12T22:24:57.734Z,89.96
2018-11-12T22:27:25.939Z,90.14
2018-11-12T22:29:54.137Z,91.45
2018-11-12T22:32:22.388Z,92.05
2018-11-12T22:34:50.617Z,91.08
2018-11-12T22:37:18.784Z,90.29
2018-11-12T22:39:46.916Z,90.01
2018-11-12T22:42:15.056Z,90.70
2018-11-12T22:44:43.180Z,90.76
2018-11-12T22:47:11.354Z,90.86
2018-11-12T22:49:39.555Z,92.27
2018-11-12T22:52:08.220Z,92.80
2018-11-12T22:54:36.390Z,93.59
2018-11-12T22:57:04.563Z,94.36
2018-11-12T22:59:33.010Z,94.43
2018-11-12T23:02:01.184Z,94.89
2018-11-12T23:04:29.434Z,94.56
2018-11-12T23:06:57.629Z,95.05
2018-11-12T23:09:25.755Z,95.02
2018-11-12T23:11:54.128Z,95.53
2018-11-12T23:14:22.300Z,95.63
2018-11-12T23:16:50.478Z,96.26
2018-11-12T23:19:18.644Z,96.37
2018-11-12T23:21:46.879Z,97.34
2018-11-12T23:24:15.004Z,97.65
2018-11-12T23:26:43.128Z,97.74
2018-11-12T23:29:11.305Z,98.43
2018-11-12T23:31:39.488Z,98.09
2018-11-12T23:34:07.868Z,98.48
2018-11-12T23:36:36.064Z,98.07
2018-11-12T23:39:05.686Z,97.92
2018-11-12T23:41:33.932Z,98.46
2018-11-12T23:44:02.201Z,98.16
2018-11-12T23:46:30.412Z,98.33
2018-11-12T23:48:58.591Z,98.44
2018-11-12T23:51:26.769Z,98.47
2018-11-12T23:53:54.955Z,99.11
2018-11-12T23:56:23.215Z,99.01
2018-11-12T23:58:52.196Z,99.51
